createdAt,value
2023-05-13T00:00:18.133Z,9.09
2023-05-13T00:02:44.967Z,9.14
2023-05-13T00:05:11.590Z,9.06
2023-05-13T00:07:38.254Z,8.97
2023-05-13T00:10:05.139Z,8.98
2023-05-13T00:12:31.774Z,8.96
2023-05-13T00:14:58.349Z,8.99
2023-05-13T00:17:25.038Z,8.98
2023-05-13T00:19:51.660Z,9.05
2023-05-13T00:22:18.819Z,8.91
2023-05-13T00:24:45.361Z,8.90
2023-05-13T00:27:12.344Z,8.96
2023-05-13T00:29:38.968Z,8.91
2023-05-13T00:32:06.302Z,8.89
2023-05-13T00:34:33.078Z,8.82
2023-05-13T00:37:01.022Z,8.82
2023-05-13T00:39:29.603Z,8.80
2023-05-13T00:41:56.422Z,8.87
2023-05-13T00:44:23.022Z,8.82
2023-05-13T00:46:49.996Z,8.83
2023-05-13T00:49:16.558Z,8.85
2023-05-13T00:51:43.277Z,8.81
2023-05-13T00:54:11.339Z,8.79
2023-05-13T00:56:39.254Z,8.87
2023-05-13T00:59:05.881Z,8.87
2023-05-13T01:01:50.780Z,8.87
2023-05-13T01:04:32.660Z,8.87
2023-05-13T01:07:19.670Z,8.85
2023-05-13T01:10:09.246Z,8.92
2023-05-13T01:12:39.971Z,8.83
2023-05-13T01:15:27.010Z,8.80
2023-05-13T01:18:19.284Z,8.87
2023-05-13T01:20:46.222Z,8.84
2023-05-13T01:23:13.280Z,8.88
2023-05-13T01:25:40.704Z,8.86
2023-05-13T01:28:08.852Z,8.85
2023-05-13T01:30:37.381Z,8.81
2023-05-13T01:33:05.413Z,8.85
2023-05-13T01:35:32.750Z,8.86
2023-05-13T01:38:01.158Z,8.86
2023-05-13T01:40:32.881Z,8.89
2023-05-13T01:43:04.388Z,8.81
2023-05-13T01:45:32.343Z,8.85
2023-05-13T01:48:00.097Z,8.79
2023-05-13T01:50:33.716Z,8.75
2023-05-13T01:53:00.539Z,8.74
2023-05-13T01:55:27.261Z,8.70
2023-05-13T01:57:55.302Z,8.71
2023-05-13T02:00:22.360Z,8.72
2023-05-13T02:02:49.845Z,8.74
2023-05-13T02:05:17.117Z,8.77
2023-05-13T02:07:44.928Z,8.73
2023-05-13T02:10:11.758Z,8.74
2023-05-13T02:12:38.438Z,8.73
2023-05-13T02:15:05.815Z,8.75
2023-05-13T02:17:32.415Z,8.81
2023-05-13T02:19:59.038Z,8.78
2023-05-13T02:22:25.691Z,8.79
2023-05-13T02:24:52.291Z,8.71
2023-05-13T02:27:19.248Z,8.66
2023-05-13T02:29:46.128Z,8.72
2023-05-13T02:32:13.205Z,8.65
2023-05-13T02:34:39.818Z,8.63
2023-05-13T02:37:06.380Z,8.63
2023-05-13T02:39:38.993Z,8.67
2023-05-13T02:42:06.086Z,8.68
2023-05-13T02:44:32.929Z,8.63
2023-05-13T02:47:00.936Z,8.64
2023-05-13T02:49:27.692Z,8.63
2023-05-13T02:51:54.751Z,8.70
2023-05-13T02:54:28.550Z,8.71
2023-05-13T02:56:55.140Z,8.59
2023-05-13T02:59:21.689Z,8.58
2023-05-13T03:01:48.659Z,8.67
2023-05-13T03:04:15.213Z,8.62
2023-05-13T03:06:41.772Z,8.72
2023-05-13T03:09:08.441Z,8.65
2023-05-13T03:11:35.126Z,8.59
2023-05-13T03:14:01.703Z,8.67
2023-05-13T03:16:28.357Z,8.65
2023-05-13T03:18:54.988Z,8.67
2023-05-13T03:21:21.854Z,8.56
2023-05-13T03:23:48.636Z,8.56
2023-05-13T03:26:16.756Z,8.56
2023-05-13T03:28:44.508Z,8.55
2023-05-13T03:31:11.134Z,8.55
2023-05-13T03:33:39.347Z,8.53
2023-05-13T03:36:09.707Z,8.59
2023-05-13T03:38:36.775Z,8.60
2023-05-13T03:41:03.827Z,8.54
2023-05-13T03:43:30.388Z,8.62
2023-05-13T03:46:01.193Z,8.54
2023-05-13T03:48:27.987Z,8.57
2023-05-13T03:50:57.387Z,8.53
2023-05-13T03:53:24.453Z,8.55
2023-05-13T03:55:52.257Z,8.59
2023-05-13T03:58:21.699Z,8.58
2023-05-13T04:00:48.879Z,8.62
2023-05-13T04:03:17.236Z,8.57
2023-05-13T04:05:46.209Z,8.61
2023-05-13T04:08:13.190Z,8.60
2023-05-13T04:10:40.215Z,8.61
2023-05-13T04:13:07.669Z,8.59
2023-05-13T04:15:34.277Z,8.61
2023-05-13T04:18:00.992Z,8.61
2023-05-13T04:20:29.068Z,8.56
2023-05-13T04:22:56.213Z,8.51
2023-05-13T04:25:22.878Z,8.53
2023-05-13T04:27:50.028Z,8.50
2023-05-13T04:30:31.222Z,8.55
2023-05-13T04:32:57.899Z,8.61
2023-05-13T04:35:25.192Z,8.65
2023-05-13T04:37:56.122Z,8.62
2023-05-13T04:40:23.259Z,8.56
2023-05-13T04:42:55.115Z,8.68
2023-05-13T04:45:31.855Z,8.63
2023-05-13T04:47:59.332Z,8.60
2023-05-13T04:50:26.244Z,8.63
2023-05-13T04:52:54.885Z,8.66
2023-05-13T04:55:22.939Z,8.65
2023-05-13T04:57:50.069Z,8.69
2023-05-13T05:00:17.726Z,8.73
2023-05-13T05:02:46.568Z,8.74
2023-05-13T05:05:13.168Z,8.79
2023-05-13T05:07:40.600Z,8.78
2023-05-13T05:10:08.849Z,8.75
2023-05-13T05:12:38.327Z,8.78
2023-05-13T05:15:06.230Z,8.81
2023-05-13T05:17:33.925Z,8.73
2023-05-13T05:20:02.431Z,8.77
2023-05-13T05:22:29.292Z,8.77
2023-05-13T05:24:56.659Z,8.74
2023-05-13T05:27:24.802Z,8.80
2023-05-13T05:29:51.511Z,8.79
2023-05-13T05:32:19.594Z,8.74
2023-05-13T05:34:46.243Z,8.59
2023-05-13T05:37:13.026Z,8.64
2023-05-13T05:39:41.202Z,8.70
2023-05-13T05:42:08.585Z,8.68
2023-05-13T05:44:36.174Z,8.63
2023-05-13T05:47:03.110Z,8.69
2023-05-13T05:49:29.782Z,8.66
2023-05-13T05:51:56.763Z,8.69
2023-05-13T05:54:23.833Z,8.76
2023-05-13T05:56:50.400Z,8.81
2023-05-13T05:59:16.944Z,8.72
2023-05-13T06:01:44.486Z,8.68
2023-05-13T06:04:11.216Z,8.72
2023-05-13T06:06:39.488Z,8.78
2023-05-13T06:09:06.627Z,8.82
2023-05-13T06:11:33.634Z,8.81
2023-05-13T06:14:00.538Z,8.82
2023-05-13T06:16:27.097Z,8.87
2023-05-13T06:18:54.080Z,8.89
2023-05-13T06:21:20.902Z,8.90
2023-05-13T06:23:49.018Z,9.00
2023-05-13T06:26:15.640Z,9.12
2023-05-13T06:28:42.242Z,9.01
2023-05-13T06:31:09.175Z,8.98
2023-05-13T06:33:37.308Z,9.01
2023-05-13T06:36:04.410Z,8.97
2023-05-13T06:38:30.996Z,8.96
2023-05-13T06:40:59.135Z,9.00
2023-05-13T06:43:37.306Z,9.00
2023-05-13T06:46:21.288Z,9.03
2023-05-13T06:48:47.952Z,9.08
2023-05-13T06:51:14.669Z,9.03
2023-05-13T06:53:41.214Z,9.04
2023-05-13T06:56:07.814Z,9.02
2023-05-13T06:58:34.482Z,9.06
2023-05-13T07:01:01.618Z,9.12
2023-05-13T07:03:28.459Z,9.07
2023-05-13T07:05:55.596Z,9.03
2023-05-13T07:08:22.521Z,9.11
2023-05-13T07:10:49.130Z,9.23
2023-05-13T07:13:16.032Z,9.20
2023-05-13T07:15:42.660Z,9.28
2023-05-13T07:18:09.433Z,9.18
2023-05-13T07:20:37.130Z,9.25
2023-05-13T07:23:03.688Z,9.28
2023-05-13T07:25:30.424Z,9.34
2023-05-13T07:27:57.043Z,9.42
2023-05-13T07:30:23.855Z,9.51
2023-05-13T07:32:52.007Z,9.44
2023-05-13T07:35:20.738Z,9.55
2023-05-13T07:37:48.028Z,9.56
2023-05-13T07:40:14.568Z,9.60
2023-05-13T07:42:41.510Z,9.46
2023-05-13T07:45:08.616Z,9.51
2023-05-13T07:47:35.597Z,9.52
2023-05-13T07:50:02.302Z,9.43
2023-05-13T07:52:28.931Z,9.47
2023-05-13T07:54:55.655Z,9.44
2023-05-13T07:57:22.280Z,9.51
2023-05-13T07:59:48.944Z,9.58
2023-05-13T08:02:15.741Z,9.52
2023-05-13T08:04:42.320Z,9.61
2023-05-13T08:07:11.291Z,9.57
2023-05-13T08:09:38.194Z,9.69
2023-05-13T08:12:05.002Z,9.88
2023-05-13T08:14:31.561Z,10.02
2023-05-13T08:16:58.095Z,10.06
2023-05-13T08:19:24.694Z,10.08
2023-05-13T08:21:51.470Z,10.11
2023-05-13T08:24:18.013Z,10.03
2023-05-13T08:26:44.680Z,10.15
2023-05-13T08:29:14.022Z,9.92
2023-05-13T08:31:40.897Z,10.05
2023-05-13T08:34:07.611Z,10.13
2023-05-13T08:36:34.288Z,10.26
2023-05-13T08:39:01.534Z,10.35
2023-05-13T08:41:29.746Z,10.36
2023-05-13T08:43:58.429Z,10.46
2023-05-13T08:46:27.802Z,10.29
2023-05-13T08:48:55.951Z,10.38
2023-05-13T08:51:22.563Z,10.25
2023-05-13T08:53:51.656Z,10.26
2023-05-13T08:56:18.186Z,10.39
2023-05-13T08:58:44.775Z,10.43
2023-05-13T09:01:12.093Z,10.38
2023-05-13T09:03:56.711Z,10.42
2023-05-13T09:06:23.372Z,10.39
2023-05-13T09:08:50.106Z,10.40
2023-05-13T09:11:17.408Z,10.54
2023-05-13T09:13:47.227Z,10.44
2023-05-13T09:16:14.322Z,10.42
2023-05-13T09:18:42.107Z,10.46
2023-05-13T09:21:29.165Z,10.33
2023-05-13T09:24:21.362Z,10.37
2023-05-13T09:26:49.934Z,10.26
2023-05-13T09:29:29.431Z,10.30
2023-05-13T09:32:01.321Z,10.31
2023-05-13T09:34:29.322Z,10.42
2023-05-13T09:37:04.428Z,10.52
2023-05-13T09:39:34.335Z,10.45
2023-05-13T09:42:04.493Z,10.48
2023-05-13T09:44:32.606Z,10.55
2023-05-13T09:47:02.299Z,10.54
2023-05-13T09:49:29.184Z,10.60
2023-05-13T09:51:55.870Z,10.85
2023-05-13T09:54:22.487Z,11.01
2023-05-13T09:56:49.098Z,11.16
2023-05-13T09:59:16.425Z,11.27
2023-05-13T10:01:43.831Z,11.46
2023-05-13T10:04:11.556Z,11.57
2023-05-13T10:06:39.364Z,11.22
2023-05-13T10:09:09.968Z,11.08
2023-05-13T10:11:37.168Z,10.91
2023-05-13T10:14:06.200Z,10.94
2023-05-13T10:16:33.109Z,10.67
2023-05-13T10:19:00.625Z,10.42
2023-05-13T10:21:27.923Z,10.62
2023-05-13T10:23:55.971Z,10.71
2023-05-13T10:26:23.871Z,10.77
2023-05-13T10:28:50.703Z,10.98
2023-05-13T10:31:17.692Z,11.35
2023-05-13T10:33:45.561Z,11.55
2023-05-13T10:36:22.136Z,11.58
2023-05-13T10:39:00.796Z,12.06
2023-05-13T10:41:27.596Z,12.84
2023-05-13T10:43:58.438Z,13.16
2023-05-13T10:46:25.578Z,13.50
2023-05-13T10:48:59.992Z,13.36
2023-05-13T10:51:27.006Z,12.79
2023-05-13T10:53:56.633Z,12.56
2023-05-13T10:56:24.802Z,12.26
2023-05-13T10:59:04.385Z,12.02
2023-05-13T11:01:34.938Z,11.85
2023-05-13T11:04:04.549Z,11.67
2023-05-13T11:06:36.831Z,11.41
2023-05-13T11:09:08.341Z,11.74
2023-05-13T11:11:36.954Z,11.88
2023-05-13T11:14:03.798Z,11.95
2023-05-13T11:16:30.511Z,12.07
2023-05-13T11:18:57.407Z,11.78
2023-05-13T11:21:36.019Z,11.49
2023-05-13T11:24:05.503Z,11.35
2023-05-13T11:26:50.075Z,11.17
2023-05-13T11:29:50.763Z,11.24
2023-05-13T11:33:08.318Z,11.37
2023-05-13T11:35:34.963Z,11.22
2023-05-13T11:38:03.345Z,11.24
2023-05-13T11:40:34.536Z,11.38
2023-05-13T11:43:01.808Z,11.13
2023-05-13T11:45:31.546Z,11.13
2023-05-13T11:47:59.134Z,11.14
2023-05-13T11:50:30.832Z,11.29
2023-05-13T11:53:02.360Z,11.19
2023-05-13T11:55:35.168Z,11.15
2023-05-13T11:58:03.275Z,11.09
2023-05-13T12:00:31.904Z,11.20
2023-05-13T12:03:00.066Z,11.42
2023-05-13T12:05:27.497Z,11.41
2023-05-13T12:07:58.499Z,11.41
2023-05-13T12:10:26.623Z,11.50
2023-05-13T12:12:53.576Z,11.85
2023-05-13T12:15:22.224Z,12.16
2023-05-13T12:17:49.794Z,12.41
2023-05-13T12:20:20.458Z,12.57
2023-05-13T12:22:47.264Z,12.65
2023-05-13T12:25:32.774Z,12.46
2023-05-13T12:28:00.325Z,12.49
2023-05-13T12:30:34.076Z,12.36
2023-05-13T12:33:00.973Z,12.33
2023-05-13T12:35:27.688Z,12.21
2023-05-13T12:38:02.204Z,12.00
2023-05-13T12:40:28.781Z,11.76
2023-05-13T12:43:02.332Z,11.74
2023-05-13T12:45:32.857Z,11.76
2023-05-13T12:48:00.684Z,11.70
2023-05-13T12:50:27.534Z,11.72
2023-05-13T12:52:54.821Z,11.81
2023-05-13T12:55:21.796Z,11.80
2023-05-13T12:58:01.108Z,11.72
2023-05-13T13:00:28.211Z,11.63
2023-05-13T13:02:55.046Z,11.64
2023-05-13T13:05:23.063Z,11.64
2023-05-13T13:07:51.034Z,11.67
2023-05-13T13:10:17.960Z,11.61
2023-05-13T13:12:44.652Z,11.62
2023-05-13T13:15:12.224Z,11.59
2023-05-13T13:17:38.936Z,11.53
2023-05-13T13:20:07.344Z,11.61
2023-05-13T13:22:36.910Z,11.65
2023-05-13T13:25:07.585Z,11.74
2023-05-13T13:27:34.892Z,11.71
2023-05-13T13:30:01.902Z,11.73
2023-05-13T13:32:28.839Z,11.78
2023-05-13T13:34:55.868Z,11.86
2023-05-13T13:37:22.424Z,11.99
2023-05-13T13:39:49.193Z,12.00
2023-05-13T13:42:15.894Z,12.03
2023-05-13T13:44:42.669Z,12.03
2023-05-13T13:47:09.571Z,12.12
2023-05-13T13:49:36.388Z,12.18
2023-05-13T13:52:03.027Z,12.40
2023-05-13T13:54:29.655Z,12.45
2023-05-13T13:56:56.237Z,12.57
2023-05-13T13:59:22.872Z,12.53
2023-05-13T14:01:49.470Z,12.68
2023-05-13T14:04:20.212Z,12.78
2023-05-13T14:06:47.067Z,12.83
2023-05-13T14:09:13.663Z,12.81
2023-05-13T14:11:40.336Z,12.71
2023-05-13T14:14:07.054Z,12.68
2023-05-13T14:16:33.827Z,12.79
2023-05-13T14:19:00.497Z,12.90
2023-05-13T14:21:27.168Z,12.93
2023-05-13T14:23:53.818Z,12.76
2023-05-13T14:26:21.136Z,12.70
2023-05-13T14:28:47.786Z,12.81
2023-05-13T14:31:14.436Z,12.86
2023-05-13T14:33:41.130Z,12.94
2023-05-13T14:36:09.533Z,12.60
2023-05-13T14:38:36.251Z,12.70
2023-05-13T14:41:02.835Z,12.76
2023-05-13T14:43:29.830Z,12.76
2023-05-13T14:45:56.403Z,12.81
2023-05-13T14:48:22.994Z,12.67
2023-05-13T14:50:49.624Z,12.54
2023-05-13T14:53:16.737Z,12.70
2023-05-13T14:55:43.361Z,12.72
2023-05-13T14:58:10.379Z,12.69
2023-05-13T15:00:41.657Z,12.64
2023-05-13T15:03:08.466Z,12.70
2023-05-13T15:05:35.466Z,12.69
2023-05-13T15:08:02.144Z,13.13
2023-05-13T15:10:28.802Z,13.55
2023-05-13T15:12:55.510Z,13.89
2023-05-13T15:15:23.275Z,14.51
2023-05-13T15:17:49.918Z,14.77
2023-05-13T15:20:16.619Z,14.93
2023-05-13T15:22:43.997Z,14.99
2023-05-13T15:25:10.946Z,15.24
2023-05-13T15:27:37.524Z,15.39
2023-05-13T15:30:04.322Z,14.83
2023-05-13T15:32:31.071Z,14.63
2023-05-13T15:34:57.815Z,14.32
2023-05-13T15:37:24.505Z,14.23
2023-05-13T15:39:51.087Z,14.16
2023-05-13T15:42:17.603Z,13.77
2023-05-13T15:44:45.760Z,13.88
2023-05-13T15:47:12.510Z,14.12
2023-05-13T15:49:39.316Z,14.29
2023-05-13T15:52:07.163Z,14.06
2023-05-13T15:54:33.944Z,14.08
2023-05-13T15:57:00.509Z,14.34
2023-05-13T15:59:27.196Z,14.52
2023-05-13T16:01:53.830Z,14.59
2023-05-13T16:04:20.568Z,14.32
2023-05-13T16:06:50.128Z,14.54
2023-05-13T16:09:16.759Z,15.07
2023-05-13T16:11:43.593Z,15.84
2023-05-13T16:14:10.386Z,15.41
2023-05-13T16:16:37.723Z,15.15
2023-05-13T16:19:04.565Z,16.97
2023-05-13T16:21:31.849Z,18.79
2023-05-13T16:23:58.604Z,18.70
2023-05-13T16:26:26.334Z,17.90
2023-05-13T16:28:52.919Z,17.61
2023-05-13T16:31:19.615Z,17.19
2023-05-13T16:33:46.265Z,16.52
2023-05-13T16:36:12.962Z,16.03
2023-05-13T16:38:41.486Z,16.03
2023-05-13T16:41:08.768Z,15.94
2023-05-13T16:43:35.446Z,15.42
2023-05-13T16:46:02.655Z,15.33
2023-05-13T16:48:29.263Z,15.01
2023-05-13T16:50:56.324Z,14.77
2023-05-13T16:53:23.211Z,14.27
2023-05-13T16:55:50.205Z,14.42
2023-05-13T16:58:17.213Z,14.42
2023-05-13T17:00:44.292Z,14.64
2023-05-13T17:03:13.303Z,14.49
2023-05-13T17:05:40.248Z,14.08
2023-05-13T17:08:06.802Z,13.94
2023-05-13T17:10:33.374Z,13.71
2023-05-13T17:13:00.113Z,13.57
2023-05-13T17:15:26.655Z,13.41
2023-05-13T17:17:53.685Z,13.03
2023-05-13T17:20:20.528Z,12.90
2023-05-13T17:22:47.685Z,12.90
2023-05-13T17:25:14.928Z,12.84
2023-05-13T17:27:41.525Z,12.83
2023-05-13T17:30:08.719Z,12.97
2023-05-13T17:32:35.835Z,12.84
2023-05-13T17:35:04.842Z,12.75
2023-05-13T17:37:31.556Z,12.91
2023-05-13T17:40:00.709Z,13.03
2023-05-13T17:42:28.991Z,13.14
2023-05-13T17:44:55.931Z,13.16
2023-05-13T17:47:22.596Z,12.98
2023-05-13T17:49:49.517Z,12.91
2023-05-13T17:52:16.064Z,12.79
2023-05-13T17:54:42.692Z,12.75
2023-05-13T17:57:11.034Z,12.50
2023-05-13T17:59:37.702Z,12.56
2023-05-13T18:02:04.440Z,12.53
2023-05-13T18:04:31.109Z,12.41
2023-05-13T18:06:57.752Z,12.31
2023-05-13T18:09:24.365Z,12.21
2023-05-13T18:11:51.068Z,12.19
2023-05-13T18:14:17.714Z,12.12
2023-05-13T18:16:44.419Z,12.04
2023-05-13T18:19:10.991Z,11.97
2023-05-13T18:21:37.697Z,11.96
2023-05-13T18:24:04.633Z,11.93
2023-05-13T18:26:31.480Z,11.80
2023-05-13T18:28:58.050Z,11.81
2023-05-13T18:31:24.762Z,11.70
2023-05-13T18:33:51.453Z,11.62
2023-05-13T18:36:18.141Z,11.60
2023-05-13T18:38:47.735Z,11.51
2023-05-13T18:41:15.018Z,11.46
2023-05-13T18:43:41.678Z,11.47
2023-05-13T18:46:08.762Z,11.42
2023-05-13T18:48:36.436Z,11.35
2023-05-13T18:51:03.164Z,11.26
2023-05-13T18:53:29.774Z,11.21
2023-05-13T18:55:56.407Z,11.21
2023-05-13T18:58:23.032Z,11.22
2023-05-13T19:00:49.788Z,11.23
2023-05-13T19:03:16.723Z,11.13
2023-05-13T19:05:44.589Z,11.11
2023-05-13T19:08:11.209Z,11.11
2023-05-13T19:10:40.375Z,11.10
2023-05-13T19:13:07.525Z,11.08
2023-05-13T19:15:34.400Z,11.10
2023-05-13T19:18:01.458Z,11.08
2023-05-13T19:20:29.456Z,11.06
2023-05-13T19:22:56.043Z,11.02
2023-05-13T19:25:22.866Z,10.98
2023-05-13T19:27:49.684Z,10.93
2023-05-13T19:30:16.408Z,10.96
2023-05-13T19:32:43.702Z,10.94
2023-05-13T19:35:11.222Z,10.93
2023-05-13T19:37:37.782Z,10.95
2023-05-13T19:40:05.020Z,10.93
2023-05-13T19:42:32.132Z,10.90
2023-05-13T19:44:58.692Z,10.87
2023-05-13T19:47:26.888Z,10.79
2023-05-13T19:49:53.871Z,10.78
2023-05-13T19:52:20.936Z,10.80
2023-05-13T19:54:47.542Z,10.77
2023-05-13T19:57:14.110Z,10.76
2023-05-13T19:59:41.821Z,10.74
2023-05-13T20:02:09.197Z,10.66
2023-05-13T20:04:36.238Z,10.70
2023-05-13T20:07:02.898Z,10.73
2023-05-13T20:09:29.828Z,10.69
2023-05-13T20:11:57.985Z,10.76
2023-05-13T20:14:27.763Z,10.78
2023-05-13T20:16:54.651Z,10.75
2023-05-13T20:19:21.438Z,10.76
2023-05-13T20:21:48.066Z,10.79
2023-05-13T20:24:14.710Z,10.80
2023-05-13T20:26:41.297Z,10.83
2023-05-13T20:29:08.466Z,10.86
2023-05-13T20:31:35.115Z,10.89
2023-05-13T20:34:03.317Z,10.88
2023-05-13T20:36:30.044Z,10.90
2023-05-13T20:38:56.659Z,10.87
2023-05-13T20:41:23.813Z,10.85
2023-05-13T20:43:50.486Z,10.87
2023-05-13T20:46:17.484Z,10.82
2023-05-13T20:48:44.220Z,10.73
2023-05-13T20:51:11.449Z,10.68
2023-05-13T20:53:38.007Z,10.61
2023-05-13T20:56:04.893Z,10.52
2023-05-13T20:58:31.477Z,10.47
2023-05-13T21:00:58.185Z,10.45
2023-05-13T21:03:25.043Z,10.42
2023-05-13T21:05:51.632Z,10.31
2023-05-13T21:08:18.381Z,10.29
2023-05-13T21:10:44.936Z,10.23
2023-05-13T21:13:11.666Z,10.10
2023-05-13T21:15:38.633Z,10.06
2023-05-13T21:18:05.281Z,9.94
2023-05-13T21:20:32.771Z,9.86
2023-05-13T21:23:00.996Z,9.75
2023-05-13T21:25:27.699Z,9.69
2023-05-13T21:27:54.339Z,9.61
2023-05-13T21:30:21.310Z,9.56
2023-05-13T21:32:48.137Z,9.53
2023-05-13T21:35:15.131Z,9.49
2023-05-13T21:37:41.737Z,9.43
2023-05-13T21:40:08.869Z,9.38
2023-05-13T21:42:35.615Z,9.36
2023-05-13T21:45:02.809Z,9.30
2023-05-13T21:47:29.732Z,9.28
2023-05-13T21:49:56.409Z,9.24
2023-05-13T21:52:23.130Z,9.17
2023-05-13T21:54:49.757Z,9.08
2023-05-13T21:57:16.697Z,9.03
2023-05-13T21:59:43.651Z,8.99
2023-05-13T22:02:10.278Z,8.95
2023-05-13T22:04:36.945Z,8.85
2023-05-13T22:07:03.613Z,8.78
2023-05-13T22:09:31.750Z,8.71
2023-05-13T22:11:58.525Z,8.65
2023-05-13T22:14:25.244Z,8.60
2023-05-13T22:17:01.218Z,8.55
2023-05-13T22:19:35.059Z,8.48
2023-05-13T22:22:01.712Z,8.46
2023-05-13T22:24:28.270Z,8.39
2023-05-13T22:26:54.833Z,8.33
2023-05-13T22:29:21.530Z,8.28
2023-05-13T22:31:48.161Z,8.24
2023-05-13T22:34:14.932Z,8.19
2023-05-13T22:36:43.829Z,8.17
2023-05-13T22:39:12.264Z,8.16
2023-05-13T22:41:38.842Z,8.13
2023-05-13T22:44:05.678Z,8.09
2023-05-13T22:46:32.457Z,8.06
2023-05-13T22:48:59.135Z,8.02
2023-05-13T22:51:25.712Z,8.01
2023-05-13T22:53:52.367Z,8.00
2023-05-13T22:56:18.891Z,7.98
2023-05-13T22:58:46.257Z,8.00
2023-05-13T23:01:13.006Z,7.99
2023-05-13T23:03:39.660Z,8.05
2023-05-13T23:06:06.374Z,8.07
2023-05-13T23:08:33.217Z,8.12
2023-05-13T23:10:59.759Z,8.15
2023-05-13T23:13:26.471Z,8.20
2023-05-13T23:15:53.068Z,8.23
2023-05-13T23:18:19.855Z,8.31
2023-05-13T23:20:51.257Z,8.35
2023-05-13T23:23:18.024Z,8.40
2023-05-13T23:25:45.756Z,8.43
2023-05-13T23:28:12.812Z,8.49
2023-05-13T23:30:39.924Z,8.54
2023-05-13T23:33:06.692Z,8.60
2023-05-13T23:35:34.116Z,8.66
2023-05-13T23:38:01.628Z,8.72
2023-05-13T23:40:28.379Z,8.78
2023-05-13T23:42:55.027Z,8.84
2023-05-13T23:45:21.648Z,8.91
2023-05-13T23:47:48.239Z,8.96
2023-05-13T23:50:14.846Z,9.01
2023-05-13T23:52:41.550Z,9.09
2023-05-13T23:55:08.366Z,9.13
2023-05-13T23:57:35.004Z,9.18
